| time (UTC) | temp F | wind direction | speed knots | gust knots | rain 1hr in | rain 24hr in | rain mn in | humidity % | barometer mb |
| 20260906155314 | 97 | 322 | 3.5 | 4.3 | 0.00 | 0.00 | 0.00 | 42 | 1008.0 |
| 20260906154814 | 98 | 184 | 0.9 | 0.9 | 0.00 | 0.00 | 0.00 | 43 | 1008.0 |
| 20260906154313 | 96 | 193 | 2.6 | 2.6 | 0.00 | 0.00 | 0.00 | 46 | 1008.0 |
| 20260906153814 | 99 | 203 | 0.9 | 2.6 | 0.00 | 0.00 | 0.00 | 44 | 1008.0 |
| 20260906153313 | 98 | 168 | 1.7 | 1.7 | 0.00 | 0.00 | 0.00 | 44 | 1008.0 |
| 20260906152814 | 96 | 278 | 2.6 | 2.6 | 0.00 | 0.00 | 0.00 | 46 | 1008.0 |
| 20260906152314 | 96 | 146 | 3.5 | 3.5 | 0.00 | 0.00 | 0.00 | 46 | 1008.0 |
| 20260906151814 | 94 | 196 | 3.5 | 3.5 | 0.00 | 0.00 | 0.00 | 47 | 1008.0 |
| 20260906151314 | 96 | 184 | 0.0 | 1.7 | 0.00 | 0.00 | 0.00 | 46 | 1008.0 |
| 20260906150815 | 95 | 205 | 2.6 | 3.5 | 0.00 | 0.00 | 0.00 | 49 | 1008.0 |
| 20260906150314 | 95 | 300 | 1.7 | 1.7 | 0.00 | 0.00 | 0.00 | 49 | 1008.0 |
| 20260906145814 | 95 | 141 | 0.9 | 0.9 | 0.00 | 0.00 | 0.00 | 48 | 1008.0 |
| 20260906144825 | 93 | 141 | 0.9 | 0.9 | 0.00 | 0.00 | 0.00 | 50 | 1008.0 |
| 20260906144314 | 92 | 45 | 1.7 | 1.7 | 0.00 | 0.00 | 0.00 | 51 | 1008.0 |
| 20260906143814 | 92 | 164 | 0.9 | 0.9 | 0.00 | 0.00 | 0.00 | 55 | 1008.0 |
| 20260906143314 | 91 | 169 | 1.7 | 1.7 | 0.00 | 0.00 | 0.00 | 56 | 1008.0 |
| 20260906142815 | 90 | 148 | 0.9 | 0.9 | 0.00 | 0.00 | 0.00 | 56 | 1008.0 |
| 20260906142314 | 89 | 281 | 0.9 | 1.7 | 0.00 | 0.00 | 0.00 | 58 | 1008.0 |
| 20260906141814 | 88 | 184 | 0.9 | 0.9 | 0.00 | 0.00 | 0.00 | 61 | 1008.0 |
| 20260906141315 | 87 | 193 | 0.9 | 1.7 | 0.00 | 0.00 | 0.00 | 63 | 1008.0 |
| 20260906140814 | 85 | 159 | 0.9 | 0.9 | 0.00 | 0.00 | 0.00 | 66 | 1008.0 |
| 20260906140314 | 85 | 254 | 1.7 | 1.7 | 0.00 | 0.00 | 0.00 | 67 | 1008.0 |
| 20260906135814 | 84 | 176 | 1.7 | 1.7 | 0.00 | 0.00 | 0.00 | 68 | 1008.0 |
| 20260906135314 | 84 | 181 | 1.7 | 1.7 | 0.00 | 0.00 | 0.00 | 69 | 1008.0 |
| 20260906134815 | 83 | 127 | 0.9 | 0.9 | 0.00 | 0.00 | 0.00 | 69 | 1008.0 |
| 20260906134314 | 83 | 183 | 1.7 | 2.6 | 0.00 | 0.00 | 0.00 | 69 | 1008.0 |
| 20260906133814 | 82 | 141 | 0.0 | 0.9 | 0.00 | 0.00 | 0.00 | 71 | 1008.0 |
| 20260906133314 | 82 | 184 | 0.0 | 0.9 | 0.00 | 0.00 | 0.00 | 72 | 1008.0 |
| 20260906132814 | 82 | 171 | 0.0 | 0.9 | 0.00 | 0.00 | 0.00 | 72 | 1008.0 |
| 20260906132313 | 81 | 180 | 0.9 | 0.9 | 0.00 | 0.00 | 0.00 | 72 | 1008.0 |
| 20260906131814 | 81 | 185 | 1.7 | 1.7 | 0.00 | 0.00 | 0.00 | 72 | 1008.0 |
| 20260906131314 | 81 | 190 | 0.9 | 0.9 | 0.00 | 0.00 | 0.00 | 73 | 1007.0 |
| 20260906130814 | 80 | 213 | 1.7 | 2.6 | 0.00 | 0.00 | 0.00 | 73 | 1007.0 |
| 20260906130314 | 80 | 183 | 1.7 | 1.7 | 0.00 | 0.00 | 0.00 | 74 | 1007.0 |
| 20260906125815 | 80 | 176 | 1.7 | 1.7 | 0.00 | 0.00 | 0.00 | 74 | 1007.0 |
| 20260906125314 | 80 | 180 | 0.9 | 0.9 | 0.00 | 0.00 | 0.00 | 75 | 1007.0 |
| 20260906124814 | 79 | 185 | 0.9 | 0.9 | 0.00 | 0.00 | 0.00 | 74 | 1007.0 |
| 20260906124314 | 79 | 181 | 0.9 | 0.9 | 0.00 | 0.00 | 0.00 | 75 | 1007.0 |
| 20260906123814 | 78 | 171 | 0.9 | 0.9 | 0.00 | 0.00 | 0.00 | 77 | 1007.0 |
| 20260906123314 | 78 | 180 | 0.0 | 0.0 | 0.00 | 0.00 | 0.00 | 78 | 1007.0 |
| 20260906122814 | 77 | 180 | 0.0 | 0.0 | 0.00 | 0.00 | 0.00 | 79 | 1007.0 |
| 20260906122314 | 77 | 180 | 0.0 | 0.0 | 0.00 | 0.00 | 0.00 | 79 | 1007.0 |
| 20260906121814 | 77 | 180 | 0.0 | 0.0 | 0.00 | 0.00 | 0.00 | 80 | 1007.0 |
| 20260906121314 | 76 | 188 | 0.9 | 1.7 | 0.00 | 0.00 | 0.00 | 81 | 1007.0 |
| 20260906120814 | 76 | 174 | 0.0 | 0.0 | 0.00 | 0.00 | 0.00 | 82 | 1007.0 |
| 20260906120314 | 76 | 166 | 0.0 | 0.0 | 0.00 | 0.00 | 0.00 | 84 | 1007.0 |
| 20260906115814 | 76 | 156 | 0.0 | 0.0 | 0.00 | 0.00 | 0.00 | 84 | 1006.0 |
| 20260906115314 | 76 | 151 | 0.0 | 0.0 | 0.00 | 0.00 | 0.00 | 83 | 1006.0 |
| 20260906114814 | 76 | 146 | 0.9 | 0.9 | 0.00 | 0.00 | 0.00 | 84 | 1006.0 |
| 20260906114315 | 75 | 174 | 0.0 | 0.0 | 0.00 | 0.00 | 0.00 | 86 | 1006.0 |
| 20260906113814 | 75 | 174 | 0.0 | 0.0 | 0.00 | 0.00 | 0.00 | 86 | 1006.0 |
| 20260906113314 | 75 | 174 | 0.9 | 0.9 | 0.00 | 0.00 | 0.00 | 86 | 1006.0 |
| 20260906112814 | 75 | 174 | 0.9 | 0.9 | 0.00 | 0.00 | 0.00 | 86 | 1006.0 |
| 20260906112314 | 75 | 174 | 0.0 | 0.0 | 0.00 | 0.00 | 0.00 | 86 | 1006.0 |
| 20260906111814 | 74 | 174 | 0.0 | 0.0 | 0.00 | 0.00 | 0.00 | 89 | 1006.0 |
| 20260906111314 | 75 | 174 | 0.0 | 0.0 | 0.00 | 0.00 | 0.00 | 88 | 1006.0 |
| 20260906110814 | 75 | 174 | 0.0 | 0.0 | 0.00 | 0.00 | 0.00 | 89 | 1006.0 |
| 20260906110314 | 75 | 174 | 0.0 | 0.0 | 0.00 | 0.00 | 0.00 | 88 | 1006.0 |
| 20260906105815 | 75 | 174 | 0.0 | 0.0 | 0.00 | 0.00 | 0.00 | 88 | 1006.0 |
| 20260906105314 | 75 | 174 | 0.0 | 0.0 | 0.00 | 0.00 | 0.00 | 88 | 1006.0 |
| 20260906104814 | 75 | 174 | 0.0 | 0.0 | 0.00 | 0.00 | 0.00 | 87 | 1006.0 |
| 20260906104314 | 76 | 174 | 0.0 | 0.0 | 0.00 | 0.00 | 0.00 | 86 | 1006.0 |
| 20260906103814 | 76 | 174 | 0.0 | 0.0 | 0.00 | 0.00 | 0.00 | 84 | 1006.0 |
| 20260906103314 | 77 | 176 | 0.9 | 0.9 | 0.00 | 0.00 | 0.00 | 82 | 1006.0 |
| 20260906102815 | 78 | 170 | 0.0 | 0.0 | 0.00 | 0.00 | 0.00 | 79 | 1006.0 |
| 20260906102314 | 79 | 171 | 0.9 | 0.9 | 0.00 | 0.00 | 0.00 | 77 | 1006.0 |
| 20260906101815 | 79 | 170 | 0.0 | 0.0 | 0.00 | 0.00 | 0.00 | 77 | 1006.0 |
| 20260906101314 | 79 | 170 | 0.0 | 0.0 | 0.00 | 0.00 | 0.00 | 76 | 1006.0 |
| 20260906100814 | 79 | 159 | 0.0 | 0.0 | 0.00 | 0.00 | 0.00 | 76 | 1006.0 |
| 20260906100314 | 79 | 165 | 0.0 | 0.0 | 0.00 | 0.00 | 0.00 | 77 | 1006.0 |
| 20260906095814 | 79 | 174 | 0.0 | 0.0 | 0.00 | 0.00 | 0.00 | 75 | 1006.0 |
| 20260906095314 | 79 | 175 | 0.0 | 0.0 | 0.00 | 0.00 | 0.00 | 75 | 1006.0 |
| 20260906094814 | 79 | 175 | 0.0 | 0.9 | 0.00 | 0.00 | 0.00 | 75 | 1006.0 |
| 20260906094314 | 79 | 159 | 0.0 | 0.0 | 0.00 | 0.00 | 0.00 | 75 | 1006.0 |
| 20260906093814 | 79 | 161 | 0.0 | 0.0 | 0.00 | 0.00 | 0.00 | 75 | 1006.0 |
| 20260906093314 | 79 | 159 | 0.9 | 0.9 | 0.00 | 0.00 | 0.00 | 75 | 1006.0 |
| 20260906092813 | 79 | 185 | 0.9 | 0.9 | 0.00 | 0.00 | 0.00 | 75 | 1006.0 |
| 20260906092314 | 78 | 173 | 0.9 | 0.9 | 0.00 | 0.00 | 0.00 | 77 | 1006.0 |
| 20260906091814 | 78 | 158 | 0.0 | 0.0 | 0.00 | 0.00 | 0.00 | 77 | 1006.0 |
| 20260906091314 | 79 | 138 | 0.9 | 0.9 | 0.00 | 0.00 | 0.00 | 77 | 1006.0 |
| 20260906090814 | 79 | 134 | 0.9 | 0.9 | 0.00 | 0.00 | 0.00 | 76 | 1006.0 |
| 20260906090314 | 79 | 160 | 0.0 | 0.0 | 0.00 | 0.00 | 0.00 | 78 | 1006.0 |
| 20260906085814 | 79 | 162 | 0.0 | 0.0 | 0.00 | 0.00 | 0.00 | 76 | 1006.0 |
| 20260906085314 | 80 | 162 | 0.0 | 0.0 | 0.00 | 0.00 | 0.00 | 74 | 1006.0 |
| 20260906084814 | 80 | 148 | 0.9 | 0.9 | 0.00 | 0.00 | 0.00 | 73 | 1006.0 |
| 20260906084313 | 80 | 139 | 0.9 | 0.9 | 0.00 | 0.00 | 0.00 | 74 | 1006.0 |
| 20260906083814 | 81 | 146 | 0.0 | 0.0 | 0.00 | 0.00 | 0.00 | 72 | 1006.0 |
| 20260906083314 | 81 | 147 | 0.0 | 0.9 | 0.00 | 0.00 | 0.00 | 70 | 1006.0 |
| 20260906082814 | 81 | 142 | 0.9 | 0.9 | 0.00 | 0.00 | 0.00 | 71 | 1006.0 |
| 20260906082314 | 81 | 147 | 0.0 | 0.0 | 0.00 | 0.00 | 0.00 | 71 | 1006.0 |
| 20260906081432 | 81 | 170 | 0.9 | 0.9 | 0.00 | 0.00 | 0.00 | 71 | 1006.0 |
| 20260906081353 | 81 | 170 | 0.9 | 0.9 | 0.00 | 0.00 | 0.00 | 71 | 1006.0 |
| 20260906080816 | 80 | 167 | 0.0 | 0.0 | 0.00 | 0.00 | 0.00 | 72 | 1006.0 |
| 20260906080315 | 80 | 167 | 0.0 | 0.0 | 0.00 | 0.00 | 0.00 | 72 | 1006.0 |
| 20260906075817 | 81 | 167 | 0.0 | 0.0 | 0.00 | 0.00 | 0.00 | 71 | 1006.0 |
| 20260906075314 | 81 | 155 | 0.0 | 0.0 | 0.00 | 0.00 | 0.00 | 70 | 1006.0 |
| 20260906074814 | 82 | 147 | 0.0 | 0.0 | 0.00 | 0.00 | 0.00 | 70 | 1006.0 |
| 20260906074314 | 82 | 147 | 0.0 | 0.0 | 0.00 | 0.00 | 0.00 | 70 | 1006.0 |
| 20260906073814 | 81 | 144 | 0.9 | 0.9 | 0.00 | 0.00 | 0.00 | 70 | 1006.0 |
| 20260906073315 | 81 | 155 | 0.0 | 0.0 | 0.00 | 0.00 | 0.00 | 71 | 1006.0 |
| 20260906072814 | 82 | 155 | 0.0 | 0.0 | 0.00 | 0.00 | 0.00 | 71 | 1006.0 |
| 20260906072314 | 82 | 166 | 0.0 | 0.0 | 0.00 | 0.00 | 0.00 | 69 | 1006.0 |
| 20260906071814 | 83 | 166 | 0.0 | 0.0 | 0.00 | 0.00 | 0.00 | 67 | 1006.0 |
| 20260906071314 | 83 | 149 | 0.9 | 0.9 | 0.00 | 0.00 | 0.00 | 67 | 1006.0 |
| 20260906070814 | 83 | 149 | 0.9 | 0.9 | 0.00 | 0.00 | 0.00 | 67 | 1006.0 |
| 20260906070323 | 82 | 149 | 0.9 | 0.9 | 0.00 | 0.00 | 0.00 | 68 | 1006.0 |
| 20260906065815 | 82 | 149 | 0.0 | 0.0 | 0.00 | 0.00 | 0.00 | 68 | 1006.0 |
| 20260906065314 | 82 | 160 | 0.0 | 0.9 | 0.00 | 0.00 | 0.00 | 68 | 1006.0 |
| 20260906064814 | 82 | 153 | 0.0 | 0.0 | 0.00 | 0.00 | 0.00 | 68 | 1006.0 |
| 20260906064314 | 82 | 153 | 0.0 | 0.0 | 0.00 | 0.00 | 0.00 | 68 | 1006.0 |
| 20260906063815 | 82 | 149 | 0.0 | 0.0 | 0.00 | 0.00 | 0.00 | 68 | 1006.0 |
| 20260906063315 | 82 | 152 | 0.0 | 0.0 | 0.00 | 0.00 | 0.00 | 68 | 1006.0 |
| 20260906062816 | 82 | 150 | 0.0 | 0.0 | 0.00 | 0.00 | 0.00 | 68 | 1006.0 |
| 20260906062314 | 82 | 157 | 0.0 | 0.0 | 0.00 | 0.00 | 0.00 | 68 | 1006.0 |
| 20260906061815 | 82 | 156 | 0.0 | 0.0 | 0.00 | 0.00 | 0.00 | 67 | 1006.0 |
| 20260906061314 | 83 | 157 | 0.0 | 0.0 | 0.00 | 0.00 | 0.00 | 67 | 1006.0 |
| 20260906060814 | 83 | 157 | 0.0 | 0.0 | 0.00 | 0.00 | 0.00 | 66 | 1006.0 |
| 20260906060313 | 83 | 174 | 0.0 | 0.0 | 0.00 | 0.00 | 0.00 | 65 | 1006.0 |
| 20260906055815 | 84 | 177 | 0.0 | 0.0 | 0.00 | 0.00 | 0.00 | 63 | 1006.0 |
| 20260906055314 | 84 | 175 | 0.0 | 0.0 | 0.00 | 0.00 | 0.00 | 64 | 1006.0 |
| 20260906054814 | 83 | 176 | 0.9 | 0.9 | 0.00 | 0.00 | 0.00 | 65 | 1006.0 |
| 20260906054314 | 84 | 171 | 0.0 | 0.0 | 0.00 | 0.00 | 0.00 | 64 | 1006.0 |
| 20260906053814 | 83 | 184 | 0.0 | 0.9 | 0.00 | 0.00 | 0.00 | 65 | 1006.0 |
| 20260906053314 | 83 | 145 | 0.0 | 0.0 | 0.00 | 0.00 | 0.00 | 65 | 1006.0 |
| 20260906052815 | 83 | 164 | 0.0 | 0.0 | 0.00 | 0.00 | 0.00 | 65 | 1006.0 |
| 20260906052314 | 84 | 174 | 0.0 | 0.0 | 0.00 | 0.00 | 0.00 | 63 | 1006.0 |
| 20260906051814 | 84 | 176 | 0.9 | 0.9 | 0.00 | 0.00 | 0.00 | 63 | 1006.0 |
| 20260906051314 | 84 | 172 | 0.0 | 0.0 | 0.00 | 0.00 | 0.00 | 65 | 1006.0 |
| 20260906050814 | 84 | 172 | 0.0 | 0.0 | 0.00 | 0.00 | 0.00 | 63 | 1006.0 |
| 20260906050315 | 84 | 154 | 0.0 | 0.0 | 0.00 | 0.00 | 0.00 | 63 | 1006.0 |
| 20260906045814 | 85 | 159 | 0.0 | 0.0 | 0.00 | 0.00 | 0.00 | 62 | 1006.0 |
| 20260906045314 | 86 | 184 | 1.7 | 1.7 | 0.00 | 0.00 | 0.00 | 60 | 1006.0 |
| 20260906044814 | 86 | 182 | 0.9 | 0.9 | 0.00 | 0.00 | 0.00 | 61 | 1006.0 |
| 20260906044314 | 86 | 160 | 0.0 | 0.0 | 0.00 | 0.00 | 0.00 | 60 | 1006.0 |
| 20260906043813 | 86 | 160 | 0.0 | 0.9 | 0.00 | 0.00 | 0.00 | 60 | 1006.0 |
| 20260906043314 | 87 | 162 | 0.0 | 0.9 | 0.00 | 0.00 | 0.00 | 60 | 1006.0 |
| 20260906042814 | 87 | 175 | 0.0 | 0.9 | 0.00 | 0.00 | 0.00 | 59 | 1006.0 |
| 20260906042314 | 87 | 159 | 0.9 | 0.9 | 0.00 | 0.00 | 0.00 | 59 | 1006.0 |
| 20260906041815 | 87 | 183 | 1.7 | 2.6 | 0.00 | 0.00 | 0.00 | 58 | 1006.0 |
| 20260906041314 | 87 | 169 | 2.6 | 2.6 | 0.00 | 0.00 | 0.00 | 58 | 1006.0 |
| 20260906040814 | 87 | 193 | 2.6 | 3.5 | 0.00 | 0.00 | 0.00 | 58 | 1006.0 |
| 20260906040314 | 87 | 190 | 3.5 | 3.5 | 0.00 | 0.00 | 0.00 | 58 | 1006.0 |
| 20260906035814 | 87 | 182 | 3.5 | 4.3 | 0.00 | 0.00 | 0.00 | 58 | 1006.0 |
| 20260906035314 | 87 | 197 | 4.3 | 5.2 | 0.00 | 0.00 | 0.00 | 58 | 1006.0 |
| 20260906034816 | 87 | 210 | 2.6 | 3.5 | 0.00 | 0.00 | 0.00 | 59 | 1006.0 |
| 20260906034314 | 86 | 149 | 0.9 | 0.9 | 0.00 | 0.00 | 0.00 | 59 | 1006.0 |
| 20260906033814 | 86 | 158 | 0.9 | 1.7 | 0.00 | 0.00 | 0.00 | 60 | 1006.0 |
| 20260906033314 | 87 | 172 | 0.9 | 0.9 | 0.00 | 0.00 | 0.00 | 59 | 1006.0 |
| 20260906032814 | 88 | 157 | 0.0 | 0.9 | 0.00 | 0.00 | 0.00 | 57 | 1006.0 |
| 20260906032314 | 87 | 159 | 0.9 | 0.9 | 0.00 | 0.00 | 0.00 | 58 | 1006.0 |
| 20260906031814 | 87 | 156 | 0.9 | 0.9 | 0.00 | 0.00 | 0.00 | 58 | 1006.0 |
| 20260906031314 | 88 | 180 | 1.7 | 1.7 | 0.00 | 0.00 | 0.00 | 56 | 1006.0 |
| 20260906030814 | 87 | 190 | 2.6 | 4.3 | 0.00 | 0.00 | 0.00 | 57 | 1006.0 |
| 20260906030316 | 87 | 181 | 1.7 | 2.6 | 0.00 | 0.00 | 0.00 | 58 | 1006.0 |
| 20260906025815 | 87 | 192 | 2.6 | 2.6 | 0.00 | 0.00 | 0.00 | 57 | 1006.0 |
| 20260906025314 | 85 | 163 | 0.9 | 0.9 | 0.00 | 0.00 | 0.00 | 62 | 1006.0 |
| 20260906024817 | 85 | 175 | 0.0 | 0.0 | 0.00 | 0.00 | 0.00 | 60 | 1006.0 |
| 20260906024314 | 86 | 189 | 0.9 | 0.9 | 0.00 | 0.00 | 0.00 | 59 | 1006.0 |
| 20260906023821 | 87 | 176 | 0.0 | 0.0 | 0.00 | 0.00 | 0.00 | 56 | 1006.0 |
| 20260906023314 | 87 | 200 | 0.0 | 0.9 | 0.00 | 0.00 | 0.00 | 57 | 1006.0 |
| 20260906022814 | 87 | 147 | 0.0 | 0.0 | 0.00 | 0.00 | 0.00 | 57 | 1006.0 |
| 20260906022314 | 87 | 151 | 1.7 | 1.7 | 0.00 | 0.00 | 0.00 | 56 | 1005.0 |
| 20260906021814 | 86 | 154 | 0.9 | 1.7 | 0.00 | 0.00 | 0.00 | 58 | 1005.0 |
| 20260906021315 | 86 | 161 | 0.9 | 0.9 | 0.00 | 0.00 | 0.00 | 57 | 1005.0 |
| 20260906020814 | 88 | 165 | 0.0 | 0.9 | 0.00 | 0.00 | 0.00 | 56 | 1005.0 |
| 20260906020314 | 88 | 185 | 0.0 | 0.0 | 0.00 | 0.00 | 0.00 | 55 | 1005.0 |
| 20260906015814 | 89 | 104 | 1.7 | 1.7 | 0.00 | 0.00 | 0.00 | 53 | 1005.0 |
| 20260906015314 | 89 | 65 | 1.7 | 1.7 | 0.00 | 0.00 | 0.00 | 51 | 1005.0 |
| 20260906014814 | 91 | 158 | 0.9 | 0.9 | 0.00 | 0.00 | 0.00 | 50 | 1005.0 |
| 20260906014314 | 91 | 161 | 0.9 | 2.6 | 0.00 | 0.00 | 0.00 | 50 | 1005.0 |
| 20260906013814 | 91 | 180 | 2.6 | 3.5 | 0.00 | 0.00 | 0.00 | 49 | 1005.0 |
| 20260906013314 | 91 | 201 | 4.3 | 4.3 | 0.00 | 0.00 | 0.00 | 49 | 1005.0 |
| 20260906012814 | 91 | 200 | 2.6 | 3.5 | 0.00 | 0.00 | 0.00 | 49 | 1005.0 |
| 20260906012314 | 91 | 202 | 1.7 | 1.7 | 0.00 | 0.00 | 0.00 | 48 | 1004.0 |
| 20260906011814 | 91 | 181 | 0.9 | 0.9 | 0.00 | 0.00 | 0.00 | 47 | 1004.0 |
| 20260906011314 | 91 | 160 | 0.9 | 1.7 | 0.00 | 0.00 | 0.00 | 48 | 1004.0 |
| 20260906010814 | 90 | 156 | 1.7 | 1.7 | 0.00 | 0.00 | 0.00 | 49 | 1004.0 |
| 20260906010315 | 89 | 152 | 1.7 | 1.7 | 0.00 | 0.00 | 0.00 | 50 | 1004.0 |
| 20260906005814 | 90 | 159 | 0.0 | 0.0 | 0.00 | 0.00 | 0.00 | 45 | 1004.0 |
| 20260906005314 | 90 | 159 | 0.0 | 0.0 | 0.00 | 0.00 | 0.00 | 45 | 1004.0 |
| 20260906004814 | 90 | 160 | 0.0 | 0.0 | 0.00 | 0.00 | 0.00 | 45 | 1004.0 |
| 20260906004314 | 91 | 152 | 0.0 | 0.0 | 0.00 | 0.00 | 0.00 | 45 | 1004.0 |
| 20260906003814 | 91 | 151 | 0.0 | 0.0 | 0.00 | 0.00 | 0.00 | 43 | 1004.0 |
| 20260906003315 | 92 | 151 | 0.0 | 0.0 | 0.00 | 0.00 | 0.00 | 42 | 1004.0 |
| 20260906002814 | 93 | 151 | 0.0 | 0.0 | 0.00 | 0.00 | 0.00 | 42 | 1004.0 |
| 20260906002314 | 93 | 144 | 0.9 | 0.9 | 0.00 | 0.00 | 0.00 | 41 | 1004.0 |
| 20260906001814 | 94 | 143 | 0.9 | 0.9 | 0.00 | 0.00 | 0.00 | 40 | 1004.0 |
| 20260906001314 | 94 | 131 | 0.9 | 0.9 | 0.00 | 0.00 | 0.00 | 40 | 1004.0 |
| 20260906000814 | 95 | 153 | 0.0 | 0.0 | 0.00 | 0.00 | 0.00 | 39 | 1004.0 |
| 20260906000314 | 96 | 153 | 0.0 | 0.0 | 0.00 | 0.00 | 0.00 | 38 | 1004.0 |
| 20260905235814 | 97 | 153 | 0.0 | 0.0 | 0.00 | 0.00 | 0.00 | 37 | 1004.0 |
| 20260905235314 | 97 | 146 | 0.0 | 0.0 | 0.00 | 0.00 | 0.00 | 37 | 1004.0 |
| 20260905234814 | 98 | 151 | 0.0 | 0.0 | 0.00 | 0.00 | 0.00 | 36 | 1004.0 |
| 20260905234314 | 99 | 152 | 0.9 | 0.9 | 0.00 | 0.00 | 0.00 | 35 | 1004.0 |
| 20260905233816 | 101 | 155 | 0.0 | 0.0 | 0.00 | 0.00 | 0.00 | 34 | 1004.0 |
| 20260905233314 | 101 | 135 | 0.0 | 0.9 | 0.00 | 0.00 | 0.00 | 32 | 1004.0 |
| 20260905232814 | 103 | 180 | 0.0 | 0.9 | 0.00 | 0.00 | 0.00 | 30 | 1004.0 |
| 20260905232314 | 102 | 147 | 0.9 | 0.9 | 0.00 | 0.00 | 0.00 | 32 | 1004.0 |
| 20260905231815 | 103 | 90 | 0.9 | 1.7 | 0.00 | 0.00 | 0.00 | 30 | 1004.0 |
| 20260905231314 | 104 | 156 | 0.0 | 0.0 | 0.00 | 0.00 | 0.00 | 31 | 1004.0 |
| 20260905230814 | 104 | 124 | 0.9 | 0.9 | 0.00 | 0.00 | 0.00 | 30 | 1004.0 |
| 20260905230314 | 104 | 153 | 0.9 | 0.9 | 0.00 | 0.00 | 0.00 | 30 | 1004.0 |
| 20260905225814 | 104 | 152 | 0.0 | 0.9 | 0.00 | 0.00 | 0.00 | 31 | 1004.0 |
| 20260905225314 | 105 | 167 | 0.0 | 0.9 | 0.00 | 0.00 | 0.00 | 30 | 1004.0 |
| 20260905224814 | 105 | 134 | 0.9 | 1.7 | 0.00 | 0.00 | 0.00 | 31 | 1004.0 |
| 20260905224314 | 107 | 149 | 0.0 | 0.0 | 0.00 | 0.00 | 0.00 | 30 | 1004.0 |
| 20260905223814 | 106 | 165 | 0.9 | 0.9 | 0.00 | 0.00 | 0.00 | 29 | 1004.0 |
| 20260905223314 | 105 | 214 | 0.0 | 0.9 | 0.00 | 0.00 | 0.00 | 29 | 1004.0 |
| 20260905222814 | 106 | 182 | 0.0 | 0.9 | 0.00 | 0.00 | 0.00 | 29 | 1004.0 |
| 20260905222314 | 106 | 191 | 1.7 | 1.7 | 0.00 | 0.00 | 0.00 | 29 | 1004.0 |
| 20260905221814 | 106 | 184 | 0.9 | 0.9 | 0.00 | 0.00 | 0.00 | 30 | 1004.0 |
| 20260905221314 | 105 | 151 | 1.7 | 1.7 | 0.00 | 0.00 | 0.00 | 31 | 1004.0 |
| 20260905220814 | 106 | 145 | 1.7 | 1.7 | 0.00 | 0.00 | 0.00 | 30 | 1004.0 |
| 20260905220314 | 105 | 190 | 0.9 | 2.6 | 0.00 | 0.00 | 0.00 | 29 | 1004.0 |
| 20260905215814 | 104 | 184 | 1.7 | 2.6 | 0.00 | 0.00 | 0.00 | 30 | 1004.0 |
| 20260905215314 | 104 | 313 | 0.9 | 2.6 | 0.00 | 0.00 | 0.00 | 31 | 1004.0 |
| 20260905214814 | 105 | 116 | 0.9 | 1.7 | 0.00 | 0.00 | 0.00 | 31 | 1004.0 |
| 20260905214314 | 105 | 161 | 0.9 | 1.7 | 0.00 | 0.00 | 0.00 | 30 | 1004.0 |
| 20260905213814 | 104 | 184 | 1.7 | 2.6 | 0.00 | 0.00 | 0.00 | 31 | 1004.0 |
| 20260905213314 | 107 | 196 | 0.9 | 0.9 | 0.00 | 0.00 | 0.00 | 29 | 1005.0 |
| 20260905212814 | 107 | 197 | 1.7 | 2.6 | 0.00 | 0.00 | 0.00 | 30 | 1005.0 |
| 20260905212314 | 106 | 141 | 1.7 | 1.7 | 0.00 | 0.00 | 0.00 | 32 | 1005.0 |
| 20260905211814 | 106 | 164 | 1.7 | 1.7 | 0.00 | 0.00 | 0.00 | 31 | 1005.0 |
| 20260905211314 | 104 | 156 | 3.5 | 3.5 | 0.00 | 0.00 | 0.00 | 32 | 1005.0 |
| 20260905210814 | 106 | 127 | 1.7 | 2.6 | 0.00 | 0.00 | 0.00 | 32 | 1005.0 |
| 20260905210316 | 106 | 190 | 0.9 | 0.9 | 0.00 | 0.00 | 0.00 | 32 | 1005.0 |
| 20260905205815 | 108 | 145 | 1.7 | 2.6 | 0.00 | 0.00 | 0.00 | 30 | 1005.0 |
| 20260905205314 | 107 | 142 | 2.6 | 3.5 | 0.00 | 0.00 | 0.00 | 33 | 1005.0 |
| 20260905204814 | 107 | 53 | 3.5 | 4.3 | 0.00 | 0.00 | 0.00 | 32 | 1006.0 |
| 20260905204314 | 106 | 195 | 1.7 | 1.7 | 0.00 | 0.00 | 0.00 | 32 | 1006.0 |
| 20260905203814 | 104 | 149 | 0.9 | 0.9 | 0.00 | 0.00 | 0.00 | 35 | 1006.0 |
| 20260905203314 | 105 | 185 | 1.7 | 1.7 | 0.00 | 0.00 | 0.00 | 33 | 1006.0 |
| 20260905202815 | 103 | 156 | 0.9 | 0.9 | 0.00 | 0.00 | 0.00 | 38 | 1006.0 |
| 20260905202314 | 100 | 190 | 3.5 | 7.8 | 0.00 | 0.00 | 0.00 | 40 | 1006.0 |
| 20260905201814 | 104 | 104 | 0.9 | 0.9 | 0.00 | 0.00 | 0.00 | 38 | 1006.0 |
| 20260905201314 | 103 | 82 | 2.6 | 3.5 | 0.00 | 0.00 | 0.00 | 37 | 1006.0 |
| 20260905200814 | 104 | 200 | 3.5 | 5.2 | 0.00 | 0.00 | 0.00 | 36 | 1006.0 |
| 20260905200314 | 103 | 11 | 4.3 | 5.2 | 0.00 | 0.00 | 0.00 | 36 | 1006.0 |
| 20260905195815 | 103 | 90 | 2.6 | 5.2 | 0.00 | 0.00 | 0.00 | 38 | 1006.0 |
| 20260905195314 | 104 | 180 | 1.7 | 2.6 | 0.00 | 0.00 | 0.00 | 35 | 1006.0 |
| 20260905194814 | 106 | 157 | 1.7 | 2.6 | 0.00 | 0.00 | 0.00 | 32 | 1006.0 |
| 20260905194318 | 103 | 198 | 6.1 | 7.0 | 0.00 | 0.00 | 0.00 | 34 | 1006.0 |
| 20260905193814 | 104 | 258 | 4.3 | 6.1 | 0.00 | 0.00 | 0.00 | 33 | 1006.0 |
| 20260905193314 | 103 | 203 | 3.5 | 6.1 | 0.00 | 0.00 | 0.00 | 35 | 1006.0 |
| 20260905192814 | 106 | 270 | 4.3 | 6.1 | 0.00 | 0.00 | 0.00 | 32 | 1006.0 |
| 20260905192314 | 107 | 145 | 0.9 | 1.7 | 0.00 | 0.00 | 0.00 | 33 | 1006.0 |
| 20260905191814 | 106 | 106 | 2.6 | 3.5 | 0.00 | 0.00 | 0.00 | 33 | 1006.0 |
| 20260905191314 | 105 | 160 | 0.9 | 1.7 | 0.00 | 0.00 | 0.00 | 34 | 1006.0 |
| 20260905190814 | 103 | 199 | 4.3 | 5.2 | 0.00 | 0.00 | 0.00 | 35 | 1006.0 |
| 20260905190314 | 103 | 193 | 2.6 | 3.5 | 0.00 | 0.00 | 0.00 | 36 | 1006.0 |
| 20260905185814 | 104 | 207 | 3.5 | 4.3 | 0.00 | 0.00 | 0.00 | 35 | 1006.0 |
| 20260905185314 | 103 | 169 | 1.7 | 3.5 | 0.00 | 0.00 | 0.00 | 37 | 1006.0 |
| 20260905184814 | 104 | 224 | 1.7 | 1.7 | 0.00 | 0.00 | 0.00 | 36 | 1006.0 |
| 20260905184313 | 103 | 272 | 2.6 | 4.3 | 0.00 | 0.00 | 0.00 | 37 | 1006.0 |
| 20260905183814 | 102 | 159 | 3.5 | 5.2 | 0.00 | 0.00 | 0.00 | 37 | 1007.0 |
| 20260905183314 | 102 | 246 | 1.7 | 2.6 | 0.00 | 0.00 | 0.00 | 37 | 1007.0 |
| 20260905182814 | 102 | 105 | 2.6 | 2.6 | 0.00 | 0.00 | 0.00 | 37 | 1007.0 |
| 20260905182314 | 103 | 180 | 2.6 | 4.3 | 0.00 | 0.00 | 0.00 | 37 | 1007.0 |
| 20260905181814 | 103 | 360 | 1.7 | 1.7 | 0.00 | 0.00 | 0.00 | 36 | 1007.0 |
| 20260905181314 | 101 | 342 | 0.9 | 0.9 | 0.00 | 0.00 | 0.00 | 37 | 1007.0 |
| 20260905180814 | 100 | 167 | 4.3 | 6.1 | 0.00 | 0.00 | 0.00 | 38 | 1007.0 |
| 20260905180314 | 100 | 101 | 2.6 | 3.5 | 0.00 | 0.00 | 0.00 | 40 | 1007.0 |
| 20260905175814 | 100 | 185 | 4.3 | 5.2 | 0.00 | 0.00 | 0.00 | 38 | 1008.0 |
| 20260905175314 | 102 | 195 | 2.6 | 2.6 | 0.00 | 0.00 | 0.00 | 37 | 1008.0 |
| 20260905174814 | 102 | 318 | 1.7 | 2.6 | 0.00 | 0.00 | 0.00 | 36 | 1008.0 |
| 20260905174314 | 100 | 193 | 5.2 | 5.2 | 0.00 | 0.00 | 0.00 | 37 | 1008.0 |
| 20260905173814 | 103 | 131 | 1.7 | 1.7 | 0.00 | 0.00 | 0.00 | 34 | 1008.0 |
| 20260905173314 | 101 | 105 | 2.6 | 3.5 | 0.00 | 0.00 | 0.00 | 36 | 1008.0 |
| 20260905172814 | 102 | 154 | 3.5 | 4.3 | 0.00 | 0.00 | 0.00 | 38 | 1008.0 |
| 20260905172322 | 102 | 186 | 1.7 | 2.6 | 0.00 | 0.00 | 0.00 | 38 | 1008.0 |
| 20260905171814 | 100 | 206 | 1.7 | 2.6 | 0.00 | 0.00 | 0.00 | 41 | 1008.0 |
| 20260905171315 | 97 | 180 | 0.9 | 0.9 | 0.00 | 0.00 | 0.00 | 45 | 1008.0 |
| 20260905170814 | 96 | 203 | 1.7 | 1.7 | 0.00 | 0.00 | 0.00 | 45 | 1008.0 |
| 20260905170314 | 97 | 166 | 0.0 | 0.9 | 0.00 | 0.00 | 0.00 | 45 | 1008.0 |
| 20260905165814 | 98 | 187 | 3.5 | 5.2 | 0.00 | 0.00 | 0.00 | 44 | 1008.0 |
| 20260905165315 | 100 | 256 | 2.6 | 3.5 | 0.00 | 0.00 | 0.00 | 42 | 1008.0 |
| 20260905164814 | 99 | 163 | 2.6 | 3.5 | 0.00 | 0.00 | 0.00 | 42 | 1008.0 |
| 20260905164314 | 101 | 195 | 0.9 | 0.9 | 0.00 | 0.00 | 0.00 | 42 | 1008.0 |
| 20260905163814 | 101 | 350 | 1.7 | 1.7 | 0.00 | 0.00 | 0.00 | 40 | 1008.0 |
| 20260905163314 | 101 | 119 | 1.7 | 1.7 | 0.00 | 0.00 | 0.00 | 40 | 1008.0 |
| 20260905162814 | 101 | 125 | 0.9 | 1.7 | 0.00 | 0.00 | 0.00 | 42 | 1008.0 |
| 20260905162314 | 99 | 292 | 1.7 | 1.7 | 0.00 | 0.00 | 0.00 | 42 | 1008.0 |
| 20260905161814 | 99 | 190 | 1.7 | 3.5 | 0.00 | 0.00 | 0.00 | 41 | 1008.0 |
| 20260905161315 | 100 | 165 | 0.9 | 3.5 | 0.00 | 0.00 | 0.00 | 42 | 1008.0 |
| 20260905160814 | 98 | 155 | 0.9 | 2.6 | 0.00 | 0.00 | 0.00 | 43 | 1008.0 |
| 20260905160314 | 98 | 199 | 1.7 | 1.7 | 0.00 | 0.00 | 0.00 | 45 | 1008.0 |
| 20260905155814 | 98 | 167 | 1.7 | 2.6 | 0.00 | 0.00 | 0.00 | 43 | 1008.0 |